Southwest Coast: Past 24 Hour Conditions

 

Pool's Island

10:30 AM NST 23 November 2014
This table is a summary of hourly weather conditions for the past 24 hours.
Date / Time
(NST)
Wind(knots) Conditions Visibility(km) Pressure(kPa) Air tempC) Relative humidity(%) Dew pointC) Wind Chill
23 November 2014
10:30 WSW 17 N/A N/A 100.1 2 68 -4 *
9:30 WSW 14 gust 19 N/A N/A 100.1 1 71 -4 *
8:30 W 14 N/A N/A 100.1 0 74 -4 *
7:30 W 12 N/A N/A 100.1 -1 73 -5 -6
6:30 WSW 13 gust 18 N/A N/A 100.0 -1 71 -5 -7
5:30 WSW 15 gust 22 N/A N/A 100.0 -1 69 -6 -7
4:30 WSW 18 gust 23 N/A N/A 100.0 -1 67 -7 -9
3:30 WSW 16 gust 24 N/A N/A 100.1 -2 69 -7 -9
2:30 WSW 15 gust 25 N/A N/A 100.1 -2 71 -7 -9
1:30 WSW 20 gust 26 N/A N/A 100.1 -3 70 -7 -11
0:30 WSW 19 gust 24 N/A N/A 100.1 -3 70 -8 -11
22 November 2014
23:30 WSW 13 gust 19 N/A N/A 100.1 -3 70 -8 -10
22:30 WSW 15 gust 21 N/A N/A 100.2 -4 70 -8 -11
21:30 W 18 N/A N/A 100.2 -4 64 -10 -12
20:30 W 19 gust 25 N/A N/A 100.2 -3 67 -9 -12
19:30 W 17 gust 22 N/A N/A 100.2 -4 63 -10 -12
18:30 WNW 18 gust 24 N/A N/A 100.1 -4 62 -10 -12
17:30 WNW 15 gust 26 N/A N/A 100.1 -4 59 -11 -12
16:30 WNW 21 gust 26 N/A N/A 100.0 -4 56 -11 -12
15:30 WNW 25 gust 36 N/A N/A 100.0 -3 52 -12 -12
14:30 WNW 27 gust 36 N/A N/A 99.8 -3 50 -12 -12
13:30 WNW 27 gust 37 N/A N/A 99.7 -3 51 -11 -12
12:30 WNW 29 gust 39 N/A N/A 99.7 -3 52 -11 -12
11:30 WNW 32 gust 43 N/A N/A 99.7 -3 56 -11 -13
10:30 WNW 29 gust 37 N/A N/A 99.7 -4 60 -11 -14
 
Map of Atlantic - Newfoundland marine weather areas Southwestern Grand Banks - 44138 Banquereau - 44139 Tail of the Bank - 44140 Nickerson Bank - 44251 Northeast Burgeo Bank - 44255 Blanc-Sablon Airport Cap Whittle Chevery Natashquan Airport Heath Point Miscou Island Grand Étang Ingonish Beach North Mountain St.Paul Island J.A. Douglas McCurdy Sydney Airport Charlottetown Airport East Point North Cape Argentia Bonavista Burgeo Cape Race Corner Brook Daniel's Harbour Englee Ferolle Point La Scie Port aux Basques Rocky Harbour Sagona Island St. Anthony Airport St. John's Int'l Airport St. Lawrence Stephenville Airport Twillingate Winterland Wreckhouse Cartwright Airport Mary's Harbour Grates Cove Pool's Island Marticot Island Long Pond Îles de la Madeleine Airport
Legend: buoyBuoy land stationLand Station